createdAt,value
2018-06-16T00:02:59.894Z,10.63
2018-06-16T00:05:28.336Z,8.97
2018-06-16T00:07:56.928Z,10.07
2018-06-16T00:10:25.361Z,11.10
2018-06-16T00:12:53.883Z,10.07
2018-06-16T00:15:22.372Z,8.67
2018-06-16T00:17:50.836Z,10.77
2018-06-16T00:20:19.336Z,11.20
2018-06-16T00:22:47.852Z,10.87
2018-06-16T00:25:16.282Z,10.03
2018-06-16T00:27:44.780Z,10.90
2018-06-16T00:30:13.198Z,9.63
2018-06-16T00:32:41.720Z,10.67
2018-06-16T00:35:10.220Z,9.50
2018-06-16T00:37:38.800Z,9.60
2018-06-16T00:40:07.294Z,9.67
2018-06-16T00:42:35.853Z,9.30
2018-06-16T00:45:04.809Z,10.50
2018-06-16T00:47:33.340Z,9.57
2018-06-16T00:50:02.035Z,10.53
2018-06-16T00:52:30.565Z,11.13
2018-06-16T00:54:59.084Z,9.30
2018-06-16T00:57:38.940Z,10.50
2018-06-16T01:00:07.375Z,10.60
2018-06-16T01:02:35.914Z,11.00
2018-06-16T01:05:04.446Z,10.60
2018-06-16T01:07:33.745Z,8.87
2018-06-16T01:10:02.186Z,11.30
2018-06-16T01:12:30.764Z,11.20
2018-06-16T01:14:59.246Z,11.00
2018-06-16T01:17:27.716Z,10.73
2018-06-16T01:19:56.243Z,9.20
2018-06-16T01:22:24.731Z,10.43
2018-06-16T01:25:05.871Z,11.07
2018-06-16T01:27:34.317Z,10.03
2018-06-16T01:30:02.758Z,9.43
2018-06-16T01:32:31.200Z,9.37
2018-06-16T01:34:59.682Z,9.63
2018-06-16T01:37:28.188Z,9.30
2018-06-16T01:39:56.875Z,9.30
2018-06-16T01:42:25.321Z,9.27
2018-06-16T01:44:53.807Z,10.07
2018-06-16T01:47:22.215Z,10.23
2018-06-16T01:49:50.789Z,9.37
2018-06-16T01:52:19.262Z,10.40
2018-06-16T01:54:47.749Z,9.03
2018-06-16T01:57:16.216Z,9.80
2018-06-16T01:59:44.694Z,9.20
2018-06-16T02:02:20.863Z,10.00
2018-06-16T02:04:49.353Z,9.20
2018-06-16T02:07:36.297Z,9.67
2018-06-16T02:10:23.934Z,8.93
2018-06-16T02:13:09.885Z,9.53
2018-06-16T02:15:38.381Z,12.87
2018-06-16T02:18:06.865Z,12.13
2018-06-16T02:20:35.523Z,13.00
2018-06-16T02:23:03.997Z,13.20
2018-06-16T02:25:32.734Z,14.73
2018-06-16T02:28:01.301Z,14.67
2018-06-16T02:30:29.721Z,15.17
2018-06-16T02:32:58.264Z,16.67
2018-06-16T02:35:27.149Z,16.83
2018-06-16T02:37:56.211Z,16.00
2018-06-16T02:40:25.381Z,15.57
2018-06-16T02:42:54.324Z,16.10
2018-06-16T02:45:22.818Z,17.57
2018-06-16T02:47:51.301Z,17.23
2018-06-16T02:50:51.129Z,16.87
2018-06-16T02:53:19.675Z,17.00
2018-06-16T02:55:48.293Z,17.33
2018-06-16T02:58:16.762Z,18.03
2018-06-16T03:00:45.236Z,17.23
2018-06-16T03:03:13.804Z,17.40
2018-06-16T03:05:42.197Z,20.40
2018-06-16T03:08:10.739Z,19.80
2018-06-16T03:10:39.289Z,19.17
2018-06-16T03:13:08.609Z,21.37
2018-06-16T03:15:37.272Z,21.10
2018-06-16T03:18:05.858Z,21.53
2018-06-16T03:20:34.386Z,21.07
2018-06-16T03:23:02.922Z,21.30
2018-06-16T03:25:31.566Z,20.77
2018-06-16T03:28:00.001Z,20.40
2018-06-16T03:30:28.473Z,22.30
2018-06-16T03:32:57.075Z,25.20
2018-06-16T03:35:25.638Z,24.53
2018-06-16T03:38:11.933Z,26.33
2018-06-16T03:40:40.421Z,26.70
2018-06-16T03:43:10.424Z,27.23
2018-06-16T03:45:38.906Z,26.40
2018-06-16T03:48:07.337Z,27.23
2018-06-16T03:50:35.932Z,28.57
2018-06-16T03:53:04.503Z,27.83
2018-06-16T03:55:32.933Z,28.70
2018-06-16T03:58:01.432Z,28.57
2018-06-16T04:00:29.905Z,28.77
2018-06-16T04:02:58.396Z,30.37
2018-06-16T04:05:26.889Z,28.50
2018-06-16T04:07:55.372Z,29.47
2018-06-16T04:10:23.824Z,27.13
2018-06-16T04:12:52.308Z,25.10
2018-06-16T04:15:20.787Z,25.73
2018-06-16T04:17:49.339Z,26.50
2018-06-16T04:20:17.773Z,25.87
2018-06-16T04:22:46.232Z,28.60
2018-06-16T04:25:14.732Z,26.73
2018-06-16T04:27:43.294Z,25.70
2018-06-16T04:30:11.784Z,28.70
2018-06-16T04:32:40.201Z,26.97
2018-06-16T04:35:08.757Z,26.17
2018-06-16T04:37:37.182Z,29.20
2018-06-16T04:40:14.650Z,30.13
2018-06-16T04:42:43.118Z,29.27
2018-06-16T04:45:11.565Z,31.33
2018-06-16T04:47:40.068Z,32.07
2018-06-16T04:50:08.513Z,30.83
2018-06-16T04:52:37.009Z,29.90
2018-06-16T04:55:05.507Z,30.97
2018-06-16T04:57:34.075Z,31.33
2018-06-16T05:00:02.508Z,32.13
2018-06-16T05:02:31.038Z,31.23
2018-06-16T05:04:59.549Z,33.87
2018-06-16T05:11:15.704Z,31.77
2018-06-16T05:13:44.188Z,32.20
2018-06-16T05:16:12.728Z,32.77
2018-06-16T05:18:41.210Z,30.67
2018-06-16T05:21:09.677Z,34.80
2018-06-16T05:23:38.166Z,28.33
2018-06-16T05:26:06.669Z,32.80
2018-06-16T05:28:35.140Z,33.20
2018-06-16T05:31:03.618Z,32.63
2018-06-16T05:33:32.138Z,31.87
2018-06-16T05:36:00.584Z,26.57
2018-06-16T05:38:29.120Z,32.57
2018-06-16T05:40:57.585Z,29.73
2018-06-16T05:43:26.041Z,29.90
2018-06-16T05:45:54.607Z,29.33
2018-06-16T05:48:23.097Z,23.07
2018-06-16T05:50:51.688Z,29.10
2018-06-16T05:53:20.256Z,26.43
2018-06-16T05:56:16.056Z,26.33
2018-06-16T05:58:44.551Z,26.70
2018-06-16T06:01:13.099Z,27.20
2018-06-16T06:03:41.639Z,24.00
2018-06-16T06:06:10.125Z,21.00
2018-06-16T06:08:38.576Z,26.43
2018-06-16T06:11:07.014Z,18.90
2018-06-16T06:13:35.560Z,25.67
2018-06-16T06:16:04.057Z,18.67
2018-06-16T06:18:39.797Z,23.50
2018-06-16T06:21:08.368Z,17.43
2018-06-16T06:23:36.852Z,22.73
2018-06-16T06:26:05.450Z,16.47
2018-06-16T06:28:33.937Z,20.77
2018-06-16T06:31:02.361Z,14.57
2018-06-16T06:33:30.809Z,20.83
2018-06-16T06:35:59.321Z,17.30
2018-06-16T06:38:27.841Z,20.17
2018-06-16T06:40:56.313Z,15.67
2018-06-16T06:43:24.819Z,18.93
2018-06-16T06:45:54.431Z,15.97
2018-06-16T06:48:23.012Z,19.73
2018-06-16T06:50:51.500Z,15.67
2018-06-16T06:53:19.972Z,18.07
2018-06-16T06:55:48.385Z,14.97
2018-06-16T06:58:16.937Z,19.00
2018-06-16T07:00:45.461Z,15.97
2018-06-16T07:03:14.010Z,18.20
2018-06-16T07:05:50.174Z,15.27
2018-06-16T07:08:18.675Z,14.57
2018-06-16T07:10:47.299Z,16.90
2018-06-16T07:13:15.581Z,15.43
2018-06-16T07:15:44.107Z,14.83
2018-06-16T07:18:12.564Z,14.60
2018-06-16T07:20:54.491Z,14.57
2018-06-16T07:23:23.066Z,13.53
2018-06-16T07:25:51.536Z,13.37
2018-06-16T07:28:20.018Z,14.07
2018-06-16T07:30:48.501Z,16.57
2018-06-16T07:33:38.374Z,13.37
2018-06-16T07:36:06.821Z,11.50
2018-06-16T07:38:35.249Z,13.70
2018-06-16T07:41:03.838Z,12.37
2018-06-16T07:43:32.313Z,12.63
2018-06-16T07:46:00.788Z,12.33
2018-06-16T07:48:29.681Z,12.17
2018-06-16T07:50:58.524Z,11.53
2018-06-16T07:53:26.980Z,12.40
2018-06-16T07:55:55.524Z,11.30
2018-06-16T07:58:24.586Z,14.00
2018-06-16T08:01:33.645Z,11.50
2018-06-16T08:04:02.156Z,11.83
2018-06-16T08:06:30.727Z,12.57
2018-06-16T08:08:59.228Z,12.03
2018-06-16T08:11:27.812Z,12.57
2018-06-16T08:13:56.316Z,14.97
2018-06-16T08:16:24.768Z,13.53
2018-06-16T08:18:53.237Z,12.40
2018-06-16T08:21:21.725Z,12.57
2018-06-16T08:23:50.248Z,13.20
2018-06-16T08:26:18.791Z,14.60
2018-06-16T08:28:47.261Z,12.20
2018-06-16T08:31:15.754Z,13.30
2018-06-16T08:33:44.234Z,11.43
2018-06-16T08:36:12.838Z,12.37
2018-06-16T08:38:41.405Z,12.57
2018-06-16T08:41:09.881Z,13.30
2018-06-16T08:43:38.482Z,14.07
2018-06-16T08:46:06.960Z,13.67
2018-06-16T08:48:35.490Z,13.50
2018-06-16T08:51:03.941Z,13.70
2018-06-16T08:53:32.536Z,13.33
2018-06-16T08:56:01.084Z,13.53
2018-06-16T08:58:29.755Z,13.00
2018-06-16T09:00:58.294Z,13.40
2018-06-16T09:03:26.764Z,13.00
2018-06-16T09:05:55.615Z,12.27
2018-06-16T09:08:24.062Z,12.37
2018-06-16T09:10:52.598Z,13.50
2018-06-16T09:13:21.157Z,13.43
2018-06-16T09:15:49.665Z,12.50
2018-06-16T09:18:18.195Z,12.83
2018-06-16T09:20:46.735Z,12.20
2018-06-16T09:23:15.305Z,11.83
2018-06-16T09:25:57.799Z,11.17
2018-06-16T09:28:26.297Z,11.03
2018-06-16T09:30:54.848Z,10.73
2018-06-16T09:33:24.263Z,10.90
2018-06-16T09:35:52.776Z,7.83
2018-06-16T09:38:21.331Z,8.20
2018-06-16T09:40:49.819Z,7.10
2018-06-16T09:43:18.449Z,7.27
2018-06-16T09:45:46.881Z,8.67
2018-06-16T09:48:15.385Z,8.13
2018-06-16T09:50:43.870Z,7.67
2018-06-16T09:53:12.421Z,7.40
2018-06-16T09:55:41.017Z,7.07
2018-06-16T09:58:09.505Z,7.70
2018-06-16T10:00:46.313Z,6.77
2018-06-16T10:03:14.772Z,6.33
2018-06-16T10:05:43.338Z,6.30
2018-06-16T10:08:11.796Z,5.50
2018-06-16T10:10:41.317Z,4.90
2018-06-16T10:13:09.741Z,6.23
2018-06-16T10:15:38.325Z,5.40
2018-06-16T10:18:06.885Z,5.33
2018-06-16T10:20:35.332Z,6.30
2018-06-16T10:23:03.860Z,6.13
2018-06-16T10:25:32.314Z,5.90
2018-06-16T10:28:03.264Z,6.17
2018-06-16T10:30:31.744Z,6.93
2018-06-16T10:33:00.723Z,5.97
2018-06-16T10:35:29.162Z,5.33
2018-06-16T10:37:57.737Z,5.27
2018-06-16T10:40:26.799Z,5.73
2018-06-16T10:42:55.608Z,5.50
2018-06-16T10:45:24.078Z,6.10
2018-06-16T10:47:52.755Z,5.63
2018-06-16T10:50:21.334Z,5.40
2018-06-16T10:52:50.027Z,5.80
2018-06-16T10:55:18.502Z,5.57
2018-06-16T10:57:47.096Z,5.57
2018-06-16T11:00:15.568Z,5.37
2018-06-16T11:02:44.058Z,6.17
2018-06-16T11:05:12.621Z,4.97
2018-06-16T11:07:41.217Z,4.60
2018-06-16T11:10:09.714Z,5.27
2018-06-16T11:12:38.212Z,5.70
2018-06-16T11:15:06.821Z,5.60
2018-06-16T11:17:35.378Z,5.50
2018-06-16T11:20:04.555Z,5.70
2018-06-16T11:22:33.040Z,5.07
2018-06-16T11:25:01.473Z,4.80
2018-06-16T11:27:53.936Z,4.60
2018-06-16T11:30:22.411Z,4.70
2018-06-16T11:32:50.957Z,4.60
2018-06-16T11:35:19.471Z,4.10
2018-06-16T11:37:47.972Z,4.17
2018-06-16T11:40:16.425Z,3.60
2018-06-16T11:42:44.876Z,3.60
2018-06-16T11:45:26.632Z,4.20
2018-06-16T11:47:55.217Z,4.00
2018-06-16T11:50:23.751Z,3.50
2018-06-16T11:52:52.367Z,3.17
2018-06-16T11:55:20.872Z,3.90
2018-06-16T11:57:49.333Z,5.07
2018-06-16T12:00:17.781Z,4.33
2018-06-16T12:02:46.269Z,4.00
2018-06-16T12:05:14.706Z,4.77
2018-06-16T12:07:43.269Z,3.67
2018-06-16T12:10:11.799Z,3.50
2018-06-16T12:12:40.332Z,3.57
2018-06-16T12:15:08.808Z,2.70
2018-06-16T12:17:38.411Z,3.80
2018-06-16T12:20:06.890Z,3.60
2018-06-16T12:22:35.382Z,3.50
2018-06-16T12:25:04.006Z,3.37
2018-06-16T12:27:32.451Z,2.80
2018-06-16T12:30:01.231Z,3.07
2018-06-16T12:32:29.693Z,2.70
2018-06-16T12:34:58.198Z,3.00
2018-06-16T12:37:26.745Z,2.70
2018-06-16T12:39:55.186Z,2.60
2018-06-16T12:42:23.811Z,2.43
2018-06-16T12:44:52.328Z,2.43
2018-06-16T12:47:20.912Z,2.53
2018-06-16T12:49:53.225Z,2.50
2018-06-16T12:52:21.777Z,2.47
2018-06-16T12:54:50.249Z,2.27
2018-06-16T12:57:18.817Z,2.70
2018-06-16T12:59:47.303Z,2.63
2018-06-16T13:02:15.725Z,2.77
2018-06-16T13:04:44.372Z,2.33
2018-06-16T13:07:13.575Z,2.53
2018-06-16T13:09:42.128Z,2.93
2018-06-16T13:12:10.580Z,2.73
2018-06-16T13:14:39.026Z,3.20
2018-06-16T13:17:07.638Z,2.70
2018-06-16T13:19:36.507Z,2.70
2018-06-16T13:22:05.288Z,2.97
2018-06-16T13:24:33.947Z,2.50
2018-06-16T13:27:02.536Z,2.73
2018-06-16T13:29:31.073Z,2.50
2018-06-16T13:31:59.672Z,2.30
2018-06-16T13:34:28.243Z,2.53
2018-06-16T13:36:56.732Z,2.60
2018-06-16T13:39:25.160Z,2.13
2018-06-16T13:41:53.829Z,2.90
2018-06-16T13:44:22.665Z,2.43
2018-06-16T13:46:51.205Z,2.10
2018-06-16T13:49:20.310Z,2.87
2018-06-16T13:51:48.886Z,2.30
2018-06-16T13:54:17.458Z,2.80
2018-06-16T13:56:46.256Z,2.63
2018-06-16T13:59:14.772Z,2.77
2018-06-16T14:01:43.215Z,2.43
2018-06-16T14:04:11.697Z,2.67
2018-06-16T14:06:40.251Z,2.53
2018-06-16T14:09:09.989Z,2.53
2018-06-16T14:11:38.413Z,2.60
2018-06-16T14:14:07.142Z,2.20
2018-06-16T14:16:35.642Z,2.70
2018-06-16T14:19:04.094Z,2.73
2018-06-16T14:21:32.598Z,2.70
2018-06-16T14:24:01.018Z,3.43
2018-06-16T14:26:29.771Z,2.50
2018-06-16T14:28:58.261Z,2.43
2018-06-16T14:32:10.253Z,2.67
2018-06-16T14:34:39.443Z,2.67
2018-06-16T14:37:17.784Z,2.67
2018-06-16T14:39:46.281Z,2.97
2018-06-16T14:42:14.829Z,3.37
2018-06-16T14:44:43.341Z,2.67
2018-06-16T14:47:11.948Z,3.47
2018-06-16T14:49:40.473Z,3.00
2018-06-16T14:52:08.957Z,2.17
2018-06-16T14:54:38.356Z,2.63
2018-06-16T14:57:06.874Z,2.83
2018-06-16T14:59:35.467Z,3.43
2018-06-16T15:02:04.320Z,3.20
2018-06-16T15:04:32.912Z,2.83
2018-06-16T15:07:01.717Z,3.33
2018-06-16T15:09:31.372Z,2.80
2018-06-16T15:11:59.861Z,2.90
2018-06-16T15:14:28.350Z,3.00
2018-06-16T15:16:56.874Z,3.30
2018-06-16T15:19:25.478Z,3.30
2018-06-16T15:21:54.080Z,3.30
2018-06-16T15:24:22.656Z,3.53
2018-06-16T15:26:51.415Z,3.20
2018-06-16T15:29:19.856Z,3.40
2018-06-16T15:31:48.514Z,3.67
2018-06-16T15:34:17.012Z,3.47
2018-06-16T15:36:46.643Z,3.63
2018-06-16T15:39:15.161Z,3.10
2018-06-16T15:41:43.605Z,3.60
2018-06-16T15:44:12.034Z,3.97
2018-06-16T15:46:40.512Z,3.40
2018-06-16T15:49:09.048Z,4.17
2018-06-16T15:51:37.532Z,2.97
2018-06-16T15:54:06.009Z,3.90
2018-06-16T15:56:34.502Z,3.53
2018-06-16T15:59:03.032Z,3.67
2018-06-16T16:01:31.568Z,4.63
2018-06-16T16:04:00.037Z,4.50
2018-06-16T16:06:28.484Z,6.87
2018-06-16T16:08:57.109Z,6.53
2018-06-16T16:11:25.549Z,6.93
2018-06-16T16:13:54.483Z,8.10
2018-06-16T16:16:26.575Z,9.67
2018-06-16T16:18:55.066Z,7.20
2018-06-16T16:21:23.592Z,8.83
2018-06-16T16:23:52.022Z,7.23
2018-06-16T16:26:20.578Z,5.83
2018-06-16T16:28:51.368Z,7.37
2018-06-16T16:31:21.566Z,8.67
2018-06-16T16:33:50.368Z,10.83
2018-06-16T16:36:18.917Z,8.00
2018-06-16T16:38:47.367Z,7.03
2018-06-16T16:41:15.871Z,8.97
2018-06-16T16:43:44.413Z,6.60
2018-06-16T16:46:12.892Z,6.30
2018-06-16T16:48:41.323Z,6.10
2018-06-16T16:51:09.892Z,5.37
2018-06-16T16:53:38.342Z,6.40
2018-06-16T16:56:06.786Z,5.73
2018-06-16T16:58:35.387Z,7.27
2018-06-16T17:01:03.961Z,5.70
2018-06-16T17:03:32.431Z,5.10
2018-06-16T17:06:00.985Z,5.20
2018-06-16T17:08:29.447Z,5.57
2018-06-16T17:10:57.934Z,6.23
2018-06-16T17:13:26.422Z,5.80
2018-06-16T17:15:54.909Z,5.30
2018-06-16T17:18:23.373Z,5.73
2018-06-16T17:20:51.863Z,5.07
2018-06-16T17:23:23.046Z,5.20
2018-06-16T17:25:51.534Z,5.00
2018-06-16T17:28:20.094Z,4.70
2018-06-16T17:30:48.673Z,4.90
2018-06-16T17:33:17.193Z,5.47
2018-06-16T17:35:45.843Z,4.43
2018-06-16T17:38:37.794Z,4.60
2018-06-16T17:41:06.402Z,4.53
2018-06-16T17:43:44.672Z,3.80
2018-06-16T17:46:13.340Z,5.97
2018-06-16T17:48:41.758Z,8.30
2018-06-16T17:51:10.345Z,7.97
2018-06-16T17:53:38.895Z,10.60
2018-06-16T17:56:07.581Z,9.33
2018-06-16T17:58:36.073Z,9.23
2018-06-16T18:01:04.681Z,12.23
2018-06-16T18:03:34.258Z,9.77
2018-06-16T18:06:02.800Z,10.43
2018-06-16T18:08:31.357Z,10.83
2018-06-16T18:10:59.892Z,10.93
2018-06-16T18:13:28.405Z,10.20
2018-06-16T18:15:57.272Z,10.77
2018-06-16T18:18:25.717Z,10.03
2018-06-16T18:20:54.638Z,11.50
2018-06-16T18:23:23.234Z,13.50
2018-06-16T18:25:51.673Z,10.50
2018-06-16T18:28:20.192Z,11.73
2018-06-16T18:30:48.666Z,13.87
2018-06-16T18:33:17.161Z,10.63
2018-06-16T18:35:45.726Z,12.37
2018-06-16T18:38:14.165Z,11.50
2018-06-16T18:40:42.775Z,11.77
2018-06-16T18:43:13.179Z,11.63
2018-06-16T18:45:44.061Z,11.00
2018-06-16T18:48:15.969Z,10.73
2018-06-16T18:50:44.664Z,11.57
2018-06-16T18:53:13.125Z,11.83
2018-06-16T18:55:41.578Z,13.60
2018-06-16T18:58:10.140Z,11.87
2018-06-16T19:00:42.972Z,12.87
2018-06-16T19:03:13.067Z,10.23
2018-06-16T19:05:41.561Z,10.50
2018-06-16T19:08:10.124Z,11.07
2018-06-16T19:11:22.094Z,9.70
2018-06-16T19:13:50.624Z,9.37
2018-06-16T19:16:19.161Z,11.30
2018-06-16T19:18:47.713Z,8.70
2018-06-16T19:21:21.572Z,9.37
2018-06-16T19:23:50.274Z,10.07
2018-06-16T19:26:18.772Z,8.30
2018-06-16T19:28:47.205Z,9.60
2018-06-16T19:31:18.085Z,7.60
2018-06-16T19:34:12.294Z,8.47
2018-06-16T19:47:01.599Z,7.70
2018-06-16T19:49:30.178Z,8.07
2018-06-16T19:52:11.705Z,7.17
2018-06-16T19:54:40.609Z,9.07
2018-06-16T19:57:09.550Z,7.20
2018-06-16T19:59:38.166Z,7.33
2018-06-16T20:02:07.095Z,7.67
2018-06-16T20:04:35.772Z,7.67
2018-06-16T20:07:19.767Z,8.90
2018-06-16T20:09:48.256Z,7.00
2018-06-16T20:12:16.863Z,9.37
2018-06-16T20:14:45.327Z,7.50
2018-06-16T20:17:14.091Z,7.37
2018-06-16T20:19:42.634Z,8.53
2018-06-16T20:22:11.179Z,6.83
2018-06-16T20:24:39.782Z,6.40
2018-06-16T20:27:08.542Z,8.70
2018-06-16T20:29:37.192Z,7.03
2018-06-16T20:32:05.912Z,8.47
2018-06-16T20:34:34.521Z,6.00
2018-06-16T20:37:03.149Z,5.97
2018-06-16T20:39:31.614Z,6.90
2018-06-16T20:42:00.168Z,6.37
2018-06-16T20:44:28.874Z,6.30
2018-06-16T20:47:06.965Z,5.47
2018-06-16T20:49:35.433Z,6.90
2018-06-16T20:52:04.059Z,4.73
2018-06-16T20:54:32.595Z,6.63
2018-06-16T20:57:01.069Z,5.93
2018-06-16T20:59:29.529Z,6.43
2018-06-16T21:01:58.025Z,6.40
2018-06-16T21:04:26.526Z,5.63
2018-06-16T21:06:55.135Z,7.17
2018-06-16T21:09:23.694Z,6.20
2018-06-16T21:11:52.285Z,5.80
2018-06-16T21:14:20.850Z,7.00
2018-06-16T21:16:49.358Z,7.83
2018-06-16T21:19:17.836Z,6.80
2018-06-16T21:21:46.431Z,5.80
2018-06-16T21:24:14.993Z,7.37
2018-06-16T21:26:43.471Z,5.40
2018-06-16T21:29:11.986Z,6.57
2018-06-16T21:31:40.529Z,6.30
2018-06-16T21:34:08.966Z,7.87
2018-06-16T21:36:37.524Z,8.07
2018-06-16T21:39:07.644Z,7.73
2018-06-16T21:41:36.222Z,7.33
2018-06-16T21:44:04.811Z,8.53
2018-06-16T21:46:33.314Z,6.57
2018-06-16T21:49:02.498Z,7.80
2018-06-16T21:51:31.156Z,8.70
2018-06-16T21:53:59.845Z,7.40
2018-06-16T21:56:28.420Z,8.80
2018-06-16T21:58:57.011Z,7.63
2018-06-16T22:01:31.767Z,8.30
2018-06-16T22:04:00.646Z,7.63
2018-06-16T22:06:29.156Z,8.10
2018-06-16T22:08:58.429Z,7.03
2018-06-16T22:11:27.085Z,7.87
2018-06-16T22:13:55.564Z,7.83
2018-06-16T22:16:24.070Z,8.50
2018-06-16T22:18:52.703Z,8.83
2018-06-16T22:21:22.158Z,9.23
2018-06-16T22:23:50.618Z,9.57
2018-06-16T22:26:19.112Z,9.70
2018-06-16T22:28:47.631Z,9.33
2018-06-16T22:31:16.649Z,7.80
2018-06-16T22:33:45.178Z,8.33
2018-06-16T22:36:13.806Z,8.43
2018-06-16T22:39:16.923Z,10.20
2018-06-16T22:41:45.773Z,8.70
2018-06-16T22:44:14.336Z,9.43
2018-06-16T22:46:42.896Z,10.77
2018-06-16T22:49:11.384Z,8.57
2018-06-16T22:51:40.762Z,8.07
2018-06-16T22:54:09.732Z,8.13
2018-06-16T22:56:38.193Z,8.13
2018-06-16T22:59:06.673Z,7.20
2018-06-16T23:01:35.283Z,7.23
2018-06-16T23:04:03.829Z,6.57
2018-06-16T23:06:32.499Z,6.60
2018-06-16T23:09:01.009Z,6.20
2018-06-16T23:11:29.558Z,5.63
2018-06-16T23:13:58.034Z,5.80
2018-06-16T23:16:26.523Z,5.67
2018-06-16T23:18:55.369Z,5.77
2018-06-16T23:21:23.905Z,5.90
2018-06-16T23:23:52.420Z,5.83
2018-06-16T23:26:25.681Z,6.43
2018-06-16T23:28:54.148Z,6.17
2018-06-16T23:31:22.817Z,5.87
2018-06-16T23:33:51.254Z,5.90
2018-06-16T23:36:19.716Z,5.47
2018-06-16T23:38:48.177Z,5.77
2018-06-16T23:41:16.673Z,5.63
2018-06-16T23:43:45.215Z,6.87
2018-06-16T23:46:13.837Z,6.20
2018-06-16T23:48:42.261Z,5.60
2018-06-16T23:51:10.704Z,4.90
2018-06-16T23:53:39.174Z,5.07
2018-06-16T23:56:07.718Z,4.70
2018-06-16T23:58:37.161Z,4.20
